sensor_id;sensor_type;location;lat;lon;timestamp;P1;durP1;ratioP1;P2;durP2;ratioP2
15848;SDS011;8024;48.708;9.394;2023-03-01T00:01:35;14.77;;;11.17;;
15848;SDS011;8024;48.708;9.394;2023-03-01T00:04:04;11.97;;;10.47;;
15848;SDS011;8024;48.708;9.394;2023-03-01T00:06:31;13.43;;;11.07;;
15848;SDS011;8024;48.708;9.394;2023-03-01T00:08:58;14.80;;;11.47;;
15848;SDS011;8024;48.708;9.394;2023-03-01T00:11:26;13.63;;;10.83;;
15848;SDS011;8024;48.708;9.394;2023-03-01T00:13:55;12.83;;;10.37;;
15848;SDS011;8024;48.708;9.394;2023-03-01T00:16:26;14.27;;;11.10;;
15848;SDS011;8024;48.708;9.394;2023-03-01T00:18:56;13.27;;;9.67;;
15848;SDS011;8024;48.708;9.394;2023-03-01T00:21:25;11.80;;;10.13;;
15848;SDS011;8024;48.708;9.394;2023-03-01T00:23:53;15.03;;;11.00;;
15848;SDS011;8024;48.708;9.394;2023-03-01T00:26:21;14.20;;;10.90;;
15848;SDS011;8024;48.708;9.394;2023-03-01T00:28:50;13.40;;;11.07;;
15848;SDS011;8024;48.708;9.394;2023-03-01T00:31:18;13.60;;;11.10;;
15848;SDS011;8024;48.708;9.394;2023-03-01T00:33:46;12.93;;;10.07;;
15848;SDS011;8024;48.708;9.394;2023-03-01T00:36:15;14.10;;;10.13;;
15848;SDS011;8024;48.708;9.394;2023-03-01T00:38:44;12.67;;;9.83;;
15848;SDS011;8024;48.708;9.394;2023-03-01T00:41:12;15.10;;;10.63;;
15848;SDS011;8024;48.708;9.394;2023-03-01T00:43:41;19.10;;;13.60;;
15848;SDS011;8024;48.708;9.394;2023-03-01T00:46:09;20.23;;;17.13;;
15848;SDS011;8024;48.708;9.394;2023-03-01T00:48:37;15.30;;;12.97;;
15848;SDS011;8024;48.708;9.394;2023-03-01T00:51:05;14.93;;;11.90;;
15848;SDS011;8024;48.708;9.394;2023-03-01T00:53:32;13.87;;;10.63;;
15848;SDS011;8024;48.708;9.394;2023-03-01T00:56:01;13.13;;;10.37;;
15848;SDS011;8024;48.708;9.394;2023-03-01T00:58:29;14.77;;;11.43;;
15848;SDS011;8024;48.708;9.394;2023-03-01T01:00:57;17.17;;;11.53;;
15848;SDS011;8024;48.708;9.394;2023-03-01T01:03:24;15.80;;;12.87;;
15848;SDS011;8024;48.708;9.394;2023-03-01T01:05:51;16.17;;;11.53;;
15848;SDS011;8024;48.708;9.394;2023-03-01T01:08:19;15.50;;;11.07;;
15848;SDS011;8024;48.708;9.394;2023-03-01T01:10:46;19.50;;;11.80;;
15848;SDS011;8024;48.708;9.394;2023-03-01T01:13:15;16.63;;;11.63;;
15848;SDS011;8024;48.708;9.394;2023-03-01T01:15:42;14.10;;;11.83;;
15848;SDS011;8024;48.708;9.394;2023-03-01T01:18:09;17.43;;;12.53;;
15848;SDS011;8024;48.708;9.394;2023-03-01T01:20:36;15.43;;;12.03;;
15848;SDS011;8024;48.708;9.394;2023-03-01T01:23:05;15.80;;;12.67;;
15848;SDS011;8024;48.708;9.394;2023-03-01T01:25:34;16.27;;;12.00;;
15848;SDS011;8024;48.708;9.394;2023-03-01T01:28:01;15.37;;;11.87;;
15848;SDS011;8024;48.708;9.394;2023-03-01T01:30:30;15.27;;;12.27;;
15848;SDS011;8024;48.708;9.394;2023-03-01T01:32:57;15.30;;;12.33;;
15848;SDS011;8024;48.708;9.394;2023-03-01T01:35:24;17.60;;;13.63;;
15848;SDS011;8024;48.708;9.394;2023-03-01T01:37:52;15.80;;;11.37;;
15848;SDS011;8024;48.708;9.394;2023-03-01T01:40:19;19.07;;;13.47;;
15848;SDS011;8024;48.708;9.394;2023-03-01T01:42:46;18.87;;;14.33;;
15848;SDS011;8024;48.708;9.394;2023-03-01T01:45:27;15.87;;;13.17;;
15848;SDS011;8024;48.708;9.394;2023-03-01T01:47:59;23.57;;;15.50;;
15848;SDS011;8024;48.708;9.394;2023-03-01T01:50:29;19.50;;;15.20;;
15848;SDS011;8024;48.708;9.394;2023-03-01T01:53:03;20.73;;;15.40;;
15848;SDS011;8024;48.708;9.394;2023-03-01T01:55:34;23.87;;;16.10;;
15848;SDS011;8024;48.708;9.394;2023-03-01T01:58:05;23.63;;;16.13;;
15848;SDS011;8024;48.708;9.394;2023-03-01T02:00:36;17.90;;;13.53;;
15848;SDS011;8024;48.708;9.394;2023-03-01T02:03:04;17.37;;;12.77;;
15848;SDS011;8024;48.708;9.394;2023-03-01T02:05:37;16.97;;;13.67;;
15848;SDS011;8024;48.708;9.394;2023-03-01T02:08:09;16.07;;;12.37;;
15848;SDS011;8024;48.708;9.394;2023-03-01T02:10:38;17.30;;;12.30;;
15848;SDS011;8024;48.708;9.394;2023-03-01T02:13:06;17.00;;;13.00;;
15848;SDS011;8024;48.708;9.394;2023-03-01T02:15:36;18.97;;;12.97;;
15848;SDS011;8024;48.708;9.394;2023-03-01T02:18:05;16.43;;;12.53;;
15848;SDS011;8024;48.708;9.394;2023-03-01T02:20:34;15.97;;;11.80;;
15848;SDS011;8024;48.708;9.394;2023-03-01T02:23:06;16.27;;;12.03;;
15848;SDS011;8024;48.708;9.394;2023-03-01T02:25:37;17.17;;;11.87;;
15848;SDS011;8024;48.708;9.394;2023-03-01T02:28:17;16.70;;;12.27;;
15848;SDS011;8024;48.708;9.394;2023-03-01T02:30:49;18.13;;;12.57;;
15848;SDS011;8024;48.708;9.394;2023-03-01T02:33:35;15.27;;;11.83;;
15848;SDS011;8024;48.708;9.394;2023-03-01T02:36:04;17.07;;;12.87;;
15848;SDS011;8024;48.708;9.394;2023-03-01T02:38:35;16.87;;;13.43;;
15848;SDS011;8024;48.708;9.394;2023-03-01T02:41:02;17.80;;;13.07;;
15848;SDS011;8024;48.708;9.394;2023-03-01T02:43:33;17.57;;;12.30;;
15848;SDS011;8024;48.708;9.394;2023-03-01T02:46:03;16.40;;;12.30;;
15848;SDS011;8024;48.708;9.394;2023-03-01T02:48:39;20.00;;;12.60;;
15848;SDS011;8024;48.708;9.394;2023-03-01T02:51:10;16.80;;;12.70;;
15848;SDS011;8024;48.708;9.394;2023-03-01T02:53:46;17.73;;;12.13;;
15848;SDS011;8024;48.708;9.394;2023-03-01T02:56:22;17.43;;;13.73;;
15848;SDS011;8024;48.708;9.394;2023-03-01T02:58:51;16.07;;;13.30;;
15848;SDS011;8024;48.708;9.394;2023-03-01T03:01:19;16.23;;;13.10;;
15848;SDS011;8024;48.708;9.394;2023-03-01T03:03:46;20.90;;;13.17;;
15848;SDS011;8024;48.708;9.394;2023-03-01T03:06:13;16.37;;;12.37;;
15848;SDS011;8024;48.708;9.394;2023-03-01T03:08:41;15.83;;;12.10;;
15848;SDS011;8024;48.708;9.394;2023-03-01T03:11:08;16.80;;;12.93;;
15848;SDS011;8024;48.708;9.394;2023-03-01T03:13:36;16.43;;;12.33;;
15848;SDS011;8024;48.708;9.394;2023-03-01T03:16:14;16.33;;;13.13;;
15848;SDS011;8024;48.708;9.394;2023-03-01T03:18:41;15.00;;;12.70;;
15848;SDS011;8024;48.708;9.394;2023-03-01T03:21:09;15.37;;;13.07;;
15848;SDS011;8024;48.708;9.394;2023-03-01T03:23:37;17.90;;;13.27;;
15848;SDS011;8024;48.708;9.394;2023-03-01T03:26:04;19.40;;;13.20;;
15848;SDS011;8024;48.708;9.394;2023-03-01T03:28:32;17.57;;;14.03;;
15848;SDS011;8024;48.708;9.394;2023-03-01T03:31:00;15.17;;;12.20;;
15848;SDS011;8024;48.708;9.394;2023-03-01T03:33:30;16.40;;;12.90;;
15848;SDS011;8024;48.708;9.394;2023-03-01T03:35:57;20.13;;;13.37;;
15848;SDS011;8024;48.708;9.394;2023-03-01T03:38:25;17.67;;;12.27;;
15848;SDS011;8024;48.708;9.394;2023-03-01T03:40:54;16.83;;;12.90;;
15848;SDS011;8024;48.708;9.394;2023-03-01T03:43:27;18.47;;;13.53;;
15848;SDS011;8024;48.708;9.394;2023-03-01T03:45:55;17.90;;;13.30;;
15848;SDS011;8024;48.708;9.394;2023-03-01T03:48:23;19.00;;;14.03;;
15848;SDS011;8024;48.708;9.394;2023-03-01T03:50:52;19.17;;;13.07;;
15848;SDS011;8024;48.708;9.394;2023-03-01T03:53:21;17.27;;;12.70;;
15848;SDS011;8024;48.708;9.394;2023-03-01T03:55:49;15.50;;;12.77;;
15848;SDS011;8024;48.708;9.394;2023-03-01T03:58:16;17.47;;;12.13;;
15848;SDS011;8024;48.708;9.394;2023-03-01T04:00:46;15.27;;;12.90;;
15848;SDS011;8024;48.708;9.394;2023-03-01T04:03:14;16.50;;;12.90;;
15848;SDS011;8024;48.708;9.394;2023-03-01T04:05:43;18.17;;;13.17;;
15848;SDS011;8024;48.708;9.394;2023-03-01T04:08:12;16.27;;;12.37;;
15848;SDS011;8024;48.708;9.394;2023-03-01T04:10:40;16.67;;;13.33;;
15848;SDS011;8024;48.708;9.394;2023-03-01T04:13:09;15.23;;;12.47;;
15848;SDS011;8024;48.708;9.394;2023-03-01T04:15:38;16.37;;;12.37;;
15848;SDS011;8024;48.708;9.394;2023-03-01T04:18:08;17.90;;;11.77;;
15848;SDS011;8024;48.708;9.394;2023-03-01T04:20:37;17.07;;;12.93;;
15848;SDS011;8024;48.708;9.394;2023-03-01T04:23:06;17.13;;;14.07;;
15848;SDS011;8024;48.708;9.394;2023-03-01T04:25:39;16.90;;;12.37;;
15848;SDS011;8024;48.708;9.394;2023-03-01T04:28:11;20.10;;;13.57;;
15848;SDS011;8024;48.708;9.394;2023-03-01T04:30:38;16.77;;;13.07;;
15848;SDS011;8024;48.708;9.394;2023-03-01T04:33:07;17.93;;;13.87;;
15848;SDS011;8024;48.708;9.394;2023-03-01T04:35:43;15.13;;;13.10;;
15848;SDS011;8024;48.708;9.394;2023-03-01T04:38:10;18.20;;;13.40;;
15848;SDS011;8024;48.708;9.394;2023-03-01T04:40:37;17.47;;;12.97;;
15848;SDS011;8024;48.708;9.394;2023-03-01T04:43:08;18.20;;;15.03;;
15848;SDS011;8024;48.708;9.394;2023-03-01T04:45:36;19.60;;;14.20;;
15848;SDS011;8024;48.708;9.394;2023-03-01T04:48:03;18.40;;;14.57;;
15848;SDS011;8024;48.708;9.394;2023-03-01T04:50:31;18.47;;;13.73;;
15848;SDS011;8024;48.708;9.394;2023-03-01T04:52:58;18.47;;;13.73;;
15848;SDS011;8024;48.708;9.394;2023-03-01T04:55:25;18.20;;;14.47;;
15848;SDS011;8024;48.708;9.394;2023-03-01T04:57:54;17.50;;;13.37;;
15848;SDS011;8024;48.708;9.394;2023-03-01T05:00:22;21.37;;;15.37;;
15848;SDS011;8024;48.708;9.394;2023-03-01T05:02:51;21.63;;;14.50;;
15848;SDS011;8024;48.708;9.394;2023-03-01T05:05:23;18.73;;;14.23;;
15848;SDS011;8024;48.708;9.394;2023-03-01T05:07:53;18.23;;;13.43;;
15848;SDS011;8024;48.708;9.394;2023-03-01T05:10:21;20.27;;;14.43;;
15848;SDS011;8024;48.708;9.394;2023-03-01T05:12:49;20.93;;;14.07;;
15848;SDS011;8024;48.708;9.394;2023-03-01T05:15:18;18.40;;;13.83;;
15848;SDS011;8024;48.708;9.394;2023-03-01T05:17:46;18.23;;;13.97;;
15848;SDS011;8024;48.708;9.394;2023-03-01T05:20:14;20.27;;;14.03;;
15848;SDS011;8024;48.708;9.394;2023-03-01T05:22:41;19.00;;;15.13;;
15848;SDS011;8024;48.708;9.394;2023-03-01T05:25:08;19.03;;;13.83;;
15848;SDS011;8024;48.708;9.394;2023-03-01T05:27:36;18.60;;;13.50;;
15848;SDS011;8024;48.708;9.394;2023-03-01T05:30:03;21.13;;;14.73;;
15848;SDS011;8024;48.708;9.394;2023-03-01T05:32:40;18.20;;;14.77;;
15848;SDS011;8024;48.708;9.394;2023-03-01T05:35:09;19.93;;;15.10;;
15848;SDS011;8024;48.708;9.394;2023-03-01T05:37:39;21.17;;;15.17;;
15848;SDS011;8024;48.708;9.394;2023-03-01T05:40:08;19.80;;;15.10;;
15848;SDS011;8024;48.708;9.394;2023-03-01T05:42:40;19.17;;;14.50;;
15848;SDS011;8024;48.708;9.394;2023-03-01T05:45:11;19.23;;;14.67;;
15848;SDS011;8024;48.708;9.394;2023-03-01T05:47:40;17.80;;;14.83;;
15848;SDS011;8024;48.708;9.394;2023-03-01T05:50:13;18.90;;;14.57;;
15848;SDS011;8024;48.708;9.394;2023-03-01T05:52:44;20.77;;;15.03;;
15848;SDS011;8024;48.708;9.394;2023-03-01T05:55:13;18.27;;;14.93;;
15848;SDS011;8024;48.708;9.394;2023-03-01T05:57:41;20.17;;;14.17;;
15848;SDS011;8024;48.708;9.394;2023-03-01T06:00:09;21.97;;;15.27;;
15848;SDS011;8024;48.708;9.394;2023-03-01T06:02:37;18.67;;;14.23;;
15848;SDS011;8024;48.708;9.394;2023-03-01T06:05:07;16.50;;;13.87;;
15848;SDS011;8024;48.708;9.394;2023-03-01T06:07:35;19.03;;;14.67;;
15848;SDS011;8024;48.708;9.394;2023-03-01T06:10:03;17.87;;;13.90;;
15848;SDS011;8024;48.708;9.394;2023-03-01T06:12:32;18.60;;;14.13;;
15848;SDS011;8024;48.708;9.394;2023-03-01T06:14:59;20.27;;;14.90;;
15848;SDS011;8024;48.708;9.394;2023-03-01T06:17:29;21.63;;;15.77;;
15848;SDS011;8024;48.708;9.394;2023-03-01T06:19:57;18.20;;;14.60;;
15848;SDS011;8024;48.708;9.394;2023-03-01T06:22:26;19.03;;;13.93;;
15848;SDS011;8024;48.708;9.394;2023-03-01T06:24:53;21.63;;;15.17;;
15848;SDS011;8024;48.708;9.394;2023-03-01T06:27:20;17.87;;;13.30;;
15848;SDS011;8024;48.708;9.394;2023-03-01T06:29:48;20.90;;;14.70;;
15848;SDS011;8024;48.708;9.394;2023-03-01T06:32:15;21.43;;;15.03;;
15848;SDS011;8024;48.708;9.394;2023-03-01T06:34:42;19.97;;;14.60;;
15848;SDS011;8024;48.708;9.394;2023-03-01T06:37:10;20.47;;;14.60;;
15848;SDS011;8024;48.708;9.394;2023-03-01T06:39:38;21.83;;;14.47;;
15848;SDS011;8024;48.708;9.394;2023-03-01T06:42:06;17.83;;;14.30;;
15848;SDS011;8024;48.708;9.394;2023-03-01T06:44:35;21.53;;;14.37;;
15848;SDS011;8024;48.708;9.394;2023-03-01T06:47:02;23.37;;;15.30;;
15848;SDS011;8024;48.708;9.394;2023-03-01T06:49:29;19.63;;;14.60;;
15848;SDS011;8024;48.708;9.394;2023-03-01T06:51:56;19.97;;;14.23;;
15848;SDS011;8024;48.708;9.394;2023-03-01T06:54:23;21.40;;;14.87;;
15848;SDS011;8024;48.708;9.394;2023-03-01T06:56:52;20.73;;;14.93;;
15848;SDS011;8024;48.708;9.394;2023-03-01T06:59:19;17.07;;;13.77;;
15848;SDS011;8024;48.708;9.394;2023-03-01T07:01:46;19.37;;;14.53;;
15848;SDS011;8024;48.708;9.394;2023-03-01T07:04:13;19.80;;;14.70;;
15848;SDS011;8024;48.708;9.394;2023-03-01T07:06:41;18.70;;;14.23;;
15848;SDS011;8024;48.708;9.394;2023-03-01T07:09:08;21.13;;;14.60;;
15848;SDS011;8024;48.708;9.394;2023-03-01T07:11:35;18.83;;;15.03;;
15848;SDS011;8024;48.708;9.394;2023-03-01T07:14:03;19.87;;;14.80;;
15848;SDS011;8024;48.708;9.394;2023-03-01T07:16:31;20.50;;;14.40;;
15848;SDS011;8024;48.708;9.394;2023-03-01T07:18:59;19.97;;;14.97;;
15848;SDS011;8024;48.708;9.394;2023-03-01T07:21:26;17.53;;;14.53;;
15848;SDS011;8024;48.708;9.394;2023-03-01T07:23:53;18.53;;;13.57;;
15848;SDS011;8024;48.708;9.394;2023-03-01T07:26:20;21.27;;;15.80;;
15848;SDS011;8024;48.708;9.394;2023-03-01T07:28:47;20.10;;;14.47;;
15848;SDS011;8024;48.708;9.394;2023-03-01T07:31:16;23.43;;;14.77;;
15848;SDS011;8024;48.708;9.394;2023-03-01T07:33:43;19.23;;;14.60;;
15848;SDS011;8024;48.708;9.394;2023-03-01T07:36:10;19.93;;;15.33;;
15848;SDS011;8024;48.708;9.394;2023-03-01T07:38:37;19.70;;;14.43;;
15848;SDS011;8024;48.708;9.394;2023-03-01T07:41:04;19.00;;;14.83;;
15848;SDS011;8024;48.708;9.394;2023-03-01T07:43:32;18.03;;;13.90;;
15848;SDS011;8024;48.708;9.394;2023-03-01T07:45:59;18.87;;;13.53;;
15848;SDS011;8024;48.708;9.394;2023-03-01T07:48:29;23.40;;;14.67;;
15848;SDS011;8024;48.708;9.394;2023-03-01T07:50:57;19.40;;;15.00;;
15848;SDS011;8024;48.708;9.394;2023-03-01T07:53:25;20.63;;;15.17;;
15848;SDS011;8024;48.708;9.394;2023-03-01T07:55:59;18.57;;;13.87;;
15848;SDS011;8024;48.708;9.394;2023-03-01T07:58:27;20.80;;;15.30;;
15848;SDS011;8024;48.708;9.394;2023-03-01T08:00:54;20.70;;;14.63;;
15848;SDS011;8024;48.708;9.394;2023-03-01T08:03:22;20.03;;;15.33;;
15848;SDS011;8024;48.708;9.394;2023-03-01T08:05:50;21.27;;;14.67;;
15848;SDS011;8024;48.708;9.394;2023-03-01T08:08:17;22.53;;;15.53;;
15848;SDS011;8024;48.708;9.394;2023-03-01T08:10:44;19.37;;;15.20;;
15848;SDS011;8024;48.708;9.394;2023-03-01T08:13:11;19.93;;;14.87;;
15848;SDS011;8024;48.708;9.394;2023-03-01T08:15:39;18.47;;;14.13;;
15848;SDS011;8024;48.708;9.394;2023-03-01T08:18:06;18.87;;;14.70;;
15848;SDS011;8024;48.708;9.394;2023-03-01T08:20:33;22.33;;;15.37;;
15848;SDS011;8024;48.708;9.394;2023-03-01T08:23:01;17.93;;;14.00;;
15848;SDS011;8024;48.708;9.394;2023-03-01T08:25:28;20.73;;;14.83;;
15848;SDS011;8024;48.708;9.394;2023-03-01T08:27:56;20.97;;;14.43;;
15848;SDS011;8024;48.708;9.394;2023-03-01T08:30:23;20.37;;;14.00;;
15848;SDS011;8024;48.708;9.394;2023-03-01T08:32:50;19.00;;;14.50;;
15848;SDS011;8024;48.708;9.394;2023-03-01T08:35:17;18.83;;;14.17;;
15848;SDS011;8024;48.708;9.394;2023-03-01T08:37:45;19.80;;;15.17;;
15848;SDS011;8024;48.708;9.394;2023-03-01T08:40:14;20.60;;;14.47;;
15848;SDS011;8024;48.708;9.394;2023-03-01T08:42:41;20.50;;;15.10;;
15848;SDS011;8024;48.708;9.394;2023-03-01T08:45:09;19.40;;;14.83;;
15848;SDS011;8024;48.708;9.394;2023-03-01T08:47:37;18.83;;;13.57;;
15848;SDS011;8024;48.708;9.394;2023-03-01T08:50:05;18.63;;;14.73;;
15848;SDS011;8024;48.708;9.394;2023-03-01T08:52:33;19.80;;;15.40;;
15848;SDS011;8024;48.708;9.394;2023-03-01T08:55:00;17.47;;;14.23;;
15848;SDS011;8024;48.708;9.394;2023-03-01T08:57:28;20.73;;;15.03;;
15848;SDS011;8024;48.708;9.394;2023-03-01T08:59:56;19.73;;;15.40;;
15848;SDS011;8024;48.708;9.394;2023-03-01T09:02:23;20.03;;;14.73;;
15848;SDS011;8024;48.708;9.394;2023-03-01T09:04:50;17.70;;;15.07;;
15848;SDS011;8024;48.708;9.394;2023-03-01T09:07:17;20.43;;;14.70;;
15848;SDS011;8024;48.708;9.394;2023-03-01T09:09:45;17.87;;;13.57;;
15848;SDS011;8024;48.708;9.394;2023-03-01T09:12:12;19.50;;;14.63;;
15848;SDS011;8024;48.708;9.394;2023-03-01T09:14:40;17.77;;;14.27;;
15848;SDS011;8024;48.708;9.394;2023-03-01T09:17:07;19.10;;;15.57;;
15848;SDS011;8024;48.708;9.394;2023-03-01T09:19:35;19.03;;;15.70;;
15848;SDS011;8024;48.708;9.394;2023-03-01T09:22:02;18.57;;;13.87;;
15848;SDS011;8024;48.708;9.394;2023-03-01T09:24:30;20.83;;;15.27;;
15848;SDS011;8024;48.708;9.394;2023-03-01T09:26:57;17.80;;;14.73;;
15848;SDS011;8024;48.708;9.394;2023-03-01T09:29:24;18.83;;;15.47;;
15848;SDS011;8024;48.708;9.394;2023-03-01T09:31:53;19.17;;;15.00;;
15848;SDS011;8024;48.708;9.394;2023-03-01T09:34:21;19.47;;;13.70;;
15848;SDS011;8024;48.708;9.394;2023-03-01T09:36:49;21.42;;;17.95;;
15848;SDS011;8024;48.708;9.394;2023-03-01T09:39:16;17.37;;;15.20;;
15848;SDS011;8024;48.708;9.394;2023-03-01T09:41:46;19.67;;;15.73;;
15848;SDS011;8024;48.708;9.394;2023-03-01T09:44:20;20.93;;;15.23;;
15848;SDS011;8024;48.708;9.394;2023-03-01T09:46:53;19.20;;;15.23;;
15848;SDS011;8024;48.708;9.394;2023-03-01T09:49:23;18.07;;;14.10;;
15848;SDS011;8024;48.708;9.394;2023-03-01T09:51:55;21.77;;;15.03;;
15848;SDS011;8024;48.708;9.394;2023-03-01T09:54:25;18.73;;;14.23;;
15848;SDS011;8024;48.708;9.394;2023-03-01T09:56:56;17.80;;;14.07;;
15848;SDS011;8024;48.708;9.394;2023-03-01T09:59:48;18.73;;;14.37;;
15848;SDS011;8024;48.708;9.394;2023-03-01T10:02:31;18.33;;;14.43;;
15848;SDS011;8024;48.708;9.394;2023-03-01T10:05:05;20.03;;;14.07;;
15848;SDS011;8024;48.708;9.394;2023-03-01T10:07:42;19.73;;;13.67;;
15848;SDS011;8024;48.708;9.394;2023-03-01T10:10:23;17.30;;;14.07;;
15848;SDS011;8024;48.708;9.394;2023-03-01T10:12:53;19.97;;;14.17;;
15848;SDS011;8024;48.708;9.394;2023-03-01T10:15:24;18.23;;;13.60;;
15848;SDS011;8024;48.708;9.394;2023-03-01T10:17:57;18.80;;;14.30;;
15848;SDS011;8024;48.708;9.394;2023-03-01T10:20:33;19.20;;;13.27;;
15848;SDS011;8024;48.708;9.394;2023-03-01T10:23:08;17.63;;;12.67;;
15848;SDS011;8024;48.708;9.394;2023-03-01T10:25:41;17.17;;;13.27;;
15848;SDS011;8024;48.708;9.394;2023-03-01T10:28:16;19.47;;;14.03;;
15848;SDS011;8024;48.708;9.394;2023-03-01T10:30:46;18.57;;;13.80;;
15848;SDS011;8024;48.708;9.394;2023-03-01T10:33:16;15.07;;;13.43;;
15848;SDS011;8024;48.708;9.394;2023-03-01T10:35:48;17.87;;;14.67;;
15848;SDS011;8024;48.708;9.394;2023-03-01T10:38:15;19.13;;;12.60;;
15848;SDS011;8024;48.708;9.394;2023-03-01T10:40:52;16.60;;;13.33;;
15848;SDS011;8024;48.708;9.394;2023-03-01T10:43:22;17.77;;;13.73;;
15848;SDS011;8024;48.708;9.394;2023-03-01T10:45:50;19.33;;;14.80;;
15848;SDS011;8024;48.708;9.394;2023-03-01T10:48:19;17.63;;;13.03;;
15848;SDS011;8024;48.708;9.394;2023-03-01T10:50:49;18.60;;;13.50;;
15848;SDS011;8024;48.708;9.394;2023-03-01T10:53:33;17.87;;;13.60;;
15848;SDS011;8024;48.708;9.394;2023-03-01T10:56:08;16.37;;;13.17;;
15848;SDS011;8024;48.708;9.394;2023-03-01T10:58:37;15.27;;;12.80;;
15848;SDS011;8024;48.708;9.394;2023-03-01T11:01:06;16.67;;;13.07;;
15848;SDS011;8024;48.708;9.394;2023-03-01T11:06:40;18.17;;;13.90;;
15848;SDS011;8024;48.708;9.394;2023-03-01T11:09:14;15.23;;;12.20;;
15848;SDS011;8024;48.708;9.394;2023-03-01T11:11:44;20.10;;;13.77;;
15848;SDS011;8024;48.708;9.394;2023-03-01T11:14:13;16.07;;;12.00;;
15848;SDS011;8024;48.708;9.394;2023-03-01T11:16:43;16.33;;;12.23;;
15848;SDS011;8024;48.708;9.394;2023-03-01T11:19:18;17.10;;;12.83;;
15848;SDS011;8024;48.708;9.394;2023-03-01T11:21:49;14.07;;;12.57;;
15848;SDS011;8024;48.708;9.394;2023-03-01T11:24:26;18.37;;;12.60;;
15848;SDS011;8024;48.708;9.394;2023-03-01T11:26:58;16.77;;;12.63;;
15848;SDS011;8024;48.708;9.394;2023-03-01T11:29:30;18.60;;;13.33;;
15848;SDS011;8024;48.708;9.394;2023-03-01T11:32:08;14.07;;;11.47;;
15848;SDS011;8024;48.708;9.394;2023-03-01T11:34:42;12.87;;;11.43;;
15848;SDS011;8024;48.708;9.394;2023-03-01T11:37:16;12.17;;;10.87;;
15848;SDS011;8024;48.708;9.394;2023-03-01T11:39:54;13.57;;;10.90;;
15848;SDS011;8024;48.708;9.394;2023-03-01T11:42:28;12.00;;;10.80;;
15848;SDS011;8024;48.708;9.394;2023-03-01T11:45:06;12.50;;;11.30;;
15848;SDS011;8024;48.708;9.394;2023-03-01T11:47:43;13.53;;;11.53;;
15848;SDS011;8024;48.708;9.394;2023-03-01T11:50:28;13.00;;;11.73;;
15848;SDS011;8024;48.708;9.394;2023-03-01T11:53:04;13.77;;;12.23;;
15848;SDS011;8024;48.708;9.394;2023-03-01T11:58:36;14.50;;;12.67;;
15848;SDS011;8024;48.708;9.394;2023-03-01T12:01:23;13.57;;;12.27;;
15848;SDS011;8024;48.708;9.394;2023-03-01T12:07:07;13.33;;;12.07;;
15848;SDS011;8024;48.708;9.394;2023-03-01T12:09:47;16.53;;;13.63;;
15848;SDS011;8024;48.708;9.394;2023-03-01T12:12:30;13.10;;;11.63;;
15848;SDS011;8024;48.708;9.394;2023-03-01T12:15:07;13.87;;;11.97;;
15848;SDS011;8024;48.708;9.394;2023-03-01T12:18:07;15.60;;;13.13;;
15848;SDS011;8024;48.708;9.394;2023-03-01T12:20:44;18.83;;;12.90;;
15848;SDS011;8024;48.708;9.394;2023-03-01T12:23:26;16.47;;;13.07;;
15848;SDS011;8024;48.708;9.394;2023-03-01T12:26:13;14.47;;;11.67;;
15848;SDS011;8024;48.708;9.394;2023-03-01T12:28:51;15.10;;;12.27;;
15848;SDS011;8024;48.708;9.394;2023-03-01T12:31:36;14.60;;;12.10;;
15848;SDS011;8024;48.708;9.394;2023-03-01T12:34:28;17.13;;;12.40;;
15848;SDS011;8024;48.708;9.394;2023-03-01T12:37:14;14.90;;;12.73;;
15848;SDS011;8024;48.708;9.394;2023-03-01T12:39:54;16.77;;;12.10;;
15848;SDS011;8024;48.708;9.394;2023-03-01T12:42:31;17.43;;;13.27;;
15848;SDS011;8024;48.708;9.394;2023-03-01T12:45:16;14.47;;;11.23;;
15848;SDS011;8024;48.708;9.394;2023-03-01T12:48:01;13.90;;;12.40;;
15848;SDS011;8024;48.708;9.394;2023-03-01T12:50:42;12.93;;;11.60;;
15848;SDS011;8024;48.708;9.394;2023-03-01T12:53:16;15.17;;;12.63;;
15848;SDS011;8024;48.708;9.394;2023-03-01T12:55:50;14.60;;;12.47;;
15848;SDS011;8024;48.708;9.394;2023-03-01T12:58:22;15.50;;;13.20;;
15848;SDS011;8024;48.708;9.394;2023-03-01T13:00:59;13.97;;;12.37;;
15848;SDS011;8024;48.708;9.394;2023-03-01T13:03:33;16.53;;;12.40;;
15848;SDS011;8024;48.708;9.394;2023-03-01T13:06:07;15.17;;;13.00;;
15848;SDS011;8024;48.708;9.394;2023-03-01T13:08:43;15.87;;;12.10;;
15848;SDS011;8024;48.708;9.394;2023-03-01T13:11:17;15.83;;;12.17;;
15848;SDS011;8024;48.708;9.394;2023-03-01T13:13:46;15.17;;;12.13;;
15848;SDS011;8024;48.708;9.394;2023-03-01T13:16:21;14.10;;;11.87;;
15848;SDS011;8024;48.708;9.394;2023-03-01T13:19:07;14.20;;;11.67;;
15848;SDS011;8024;48.708;9.394;2023-03-01T13:21:37;14.07;;;12.57;;
15848;SDS011;8024;48.708;9.394;2023-03-01T13:24:22;14.57;;;12.00;;
15848;SDS011;8024;48.708;9.394;2023-03-01T13:27:18;13.77;;;12.33;;
15848;SDS011;8024;48.708;9.394;2023-03-01T13:29:55;14.47;;;11.70;;
15848;SDS011;8024;48.708;9.394;2023-03-01T13:32:25;13.13;;;10.83;;
15848;SDS011;8024;48.708;9.394;2023-03-01T13:34:57;13.73;;;12.17;;
15848;SDS011;8024;48.708;9.394;2023-03-01T13:37:26;16.17;;;12.47;;
15848;SDS011;8024;48.708;9.394;2023-03-01T13:39:56;15.00;;;10.93;;
15848;SDS011;8024;48.708;9.394;2023-03-01T13:42:34;13.87;;;12.33;;
15848;SDS011;8024;48.708;9.394;2023-03-01T13:45:04;13.00;;;11.23;;
15848;SDS011;8024;48.708;9.394;2023-03-01T13:47:52;14.20;;;11.60;;
15848;SDS011;8024;48.708;9.394;2023-03-01T13:50:24;14.13;;;11.07;;
15848;SDS011;8024;48.708;9.394;2023-03-01T13:52:53;12.27;;;11.00;;
15848;SDS011;8024;48.708;9.394;2023-03-01T13:55:24;12.43;;;11.07;;
15848;SDS011;8024;48.708;9.394;2023-03-01T13:57:57;13.47;;;11.63;;
15848;SDS011;8024;48.708;9.394;2023-03-01T14:00:28;12.73;;;11.37;;
15848;SDS011;8024;48.708;9.394;2023-03-01T14:03:02;13.50;;;11.10;;
15848;SDS011;8024;48.708;9.394;2023-03-01T14:05:32;13.83;;;11.23;;
15848;SDS011;8024;48.708;9.394;2023-03-01T14:08:00;13.50;;;11.77;;
15848;SDS011;8024;48.708;9.394;2023-03-01T14:10:30;12.23;;;10.97;;
15848;SDS011;8024;48.708;9.394;2023-03-01T14:13:07;13.07;;;11.43;;
15848;SDS011;8024;48.708;9.394;2023-03-01T14:15:50;13.87;;;12.17;;
15848;SDS011;8024;48.708;9.394;2023-03-01T14:18:29;13.40;;;12.00;;
15848;SDS011;8024;48.708;9.394;2023-03-01T14:21:07;16.33;;;12.53;;
15848;SDS011;8024;48.708;9.394;2023-03-01T14:23:34;13.13;;;11.63;;
15848;SDS011;8024;48.708;9.394;2023-03-01T14:26:04;15.50;;;12.57;;
15848;SDS011;8024;48.708;9.394;2023-03-01T14:28:35;14.30;;;11.77;;
15848;SDS011;8024;48.708;9.394;2023-03-01T14:33:58;15.80;;;12.63;;
15848;SDS011;8024;48.708;9.394;2023-03-01T14:36:26;16.63;;;12.07;;
15848;SDS011;8024;48.708;9.394;2023-03-01T14:38:55;15.50;;;12.70;;
15848;SDS011;8024;48.708;9.394;2023-03-01T14:41:24;13.63;;;11.80;;
15848;SDS011;8024;48.708;9.394;2023-03-01T14:43:55;13.67;;;11.57;;
15848;SDS011;8024;48.708;9.394;2023-03-01T14:46:26;15.13;;;11.80;;
15848;SDS011;8024;48.708;9.394;2023-03-01T14:48:58;14.77;;;12.43;;
15848;SDS011;8024;48.708;9.394;2023-03-01T14:51:29;14.67;;;12.43;;
15848;SDS011;8024;48.708;9.394;2023-03-01T14:53:56;14.53;;;12.07;;
15848;SDS011;8024;48.708;9.394;2023-03-01T14:56:23;14.23;;;11.57;;
15848;SDS011;8024;48.708;9.394;2023-03-01T14:58:51;15.97;;;12.87;;
15848;SDS011;8024;48.708;9.394;2023-03-01T15:01:20;14.63;;;12.83;;
15848;SDS011;8024;48.708;9.394;2023-03-01T15:03:48;16.00;;;11.67;;
15848;SDS011;8024;48.708;9.394;2023-03-01T15:06:17;14.17;;;12.33;;
15848;SDS011;8024;48.708;9.394;2023-03-01T15:08:48;15.20;;;12.00;;